This is the latest recevied weather packets stored in our database for station/object W4DEX-2. If no packets are shown the sender has not sent any weather packets the latest 1 day(s).
| Time | Temp. | Humidity | Pressure | Rain* | Wind** | Luminosity | Snow |
|---|---|---|---|---|---|---|---|
| 1778091903 | 18.33° C | 80% | 1014.4 hPa | 4.57 mm | 3.13 m/s, 193° | - | - |
| 1778089503 | 18.89° C | 79% | 1014.9 hPa | 0 mm | 3.58 m/s, 185° | - | - |
| 1778088902 | 19.44° C | 77% | 1014.4 hPa | 0 mm | 4.47 m/s, 180° | - | - |
| 1778086503 | 22.78° C | 60% | 1014.2 hPa | 0 mm | 4.92 m/s, 180° | - | - |
| 1778086203 | 22.22° C | 61% | 1014 hPa | 0 mm | 5.36 m/s, 179° | - | - |
| 1778084703 | 22.22° C | 62% | 1014.1 hPa | 0 mm | 4.47 m/s, 180° | - | - |
| 1778081703 | 21.11° C | 64% | 1013.8 hPa | 0 mm | 4.92 m/s, 164° | - | - |
| 1778081403 | 21.11° C | 64% | 1013.7 hPa | 0 mm | 3.58 m/s, 190° | - | - |
| 1778076602 | 18.89° C | 68% | 1013.4 hPa | 0 mm | 4.92 m/s, 178° | - | - |
| 1778075402 | 18.33° C | 68% | 1013.3 hPa | 0 mm | 5.81 m/s, 177° | - | - |
| 1778073602 | 18.33° C | 68% | 1013.7 hPa | 0 mm | 4.92 m/s, 178° | - | - |
| 1778073302 | 18.33° C | 68% | 1013.8 hPa | 0 mm | 5.36 m/s, 174° | - | - |
| 1778073003 | 18.33° C | 68% | 1013.7 hPa | 0 mm | 7.15 m/s, 178° | - | - |
| 1778070303 | 17.22° C | 70% | 1014.3 hPa | 0 mm | 4.47 m/s, 180° | - | - |
| 1778069103 | 16.67° C | 73% | 1013.8 hPa | 0 mm | 5.36 m/s, 175° | - | - |
| 1778064302 | 15° C | 76% | 1012.8 hPa | 0 mm | 4.47 m/s, 174° | - | - |
| 1778058602 | 16.11° C | 72% | 1013.4 hPa | 0 mm | 4.92 m/s, 172° | - | - |
| 1778058003 | 16.11° C | 71% | 1013.5 hPa | 0 mm | 4.92 m/s, 174° | - | - |
| 1778055903 | 16.67° C | 70% | 1013.8 hPa | 0 mm | 5.81 m/s, 178° | - | - |
| 1778054702 | 16.11° C | 70% | 1013.8 hPa | 0 mm | 5.81 m/s, 174° | - | - |
| 1778053502 | 16.67° C | 69% | 1013.8 hPa | 0 mm | 5.36 m/s, 180° | - | - |
| 1778052302 | 16.67° C | 69% | 1013.2 hPa | 0 mm | 4.92 m/s, 176° | - | - |
| 1778051102 | 16.67° C | 69% | 1013.5 hPa | 0 mm | 5.36 m/s, 176° | - | - |
| 1778049902 | 16.67° C | 68% | 1013.8 hPa | 0 mm | 5.36 m/s, 175° | - | - |
| 1778048403 | 16.67° C | 68% | 1013.8 hPa | 0 mm | 4.92 m/s, 175° | - | - |
* Rain latest hour (hover to see other rain measurements)
** Current wind speed in m/s (hover to see current wind gust speed)